createdAt,value
2023-04-13T00:00:03.112Z,9.6
2023-04-13T00:20:02.835Z,9.4
2023-04-13T00:40:02.291Z,9.3
2023-04-13T01:00:02.728Z,9.2
2023-04-13T01:20:02.631Z,9
2023-04-13T01:40:03.192Z,8.9
2023-04-13T02:00:02.627Z,8.9
2023-04-13T02:20:03.165Z,8.8
2023-04-13T02:40:02.556Z,8.6
2023-04-13T03:00:03.231Z,8.4
2023-04-13T03:20:02.603Z,8.1
2023-04-13T03:40:02.977Z,7.8
2023-04-13T04:00:02.424Z,7.6
2023-04-13T04:20:03.067Z,7.6
2023-04-13T04:40:02.379Z,7.6
2023-04-13T05:00:02.883Z,7.7
2023-04-13T05:20:02.446Z,7.6
2023-04-13T05:40:02.849Z,7.5
2023-04-13T06:00:02.307Z,7.7
2023-04-13T06:20:03.063Z,8.1
2023-04-13T06:40:02.588Z,8.3
2023-04-13T07:00:02.993Z,8.4
2023-04-13T07:20:02.298Z,8.7
2023-04-13T07:40:02.911Z,8.8
2023-04-13T08:00:02.792Z,9.1
2023-04-13T08:20:02.491Z,9.3
2023-04-13T08:40:03.153Z,10
2023-04-13T09:00:02.697Z,10.3
2023-04-13T09:20:02.888Z,10.5
2023-04-13T09:40:02.492Z,11.5
2023-04-13T10:00:03.190Z,11.4
2023-04-13T10:20:03.054Z,11.8
2023-04-13T10:40:02.704Z,12.2
2023-04-13T11:00:03.430Z,12.5
2023-04-13T11:20:02.437Z,12.3
2023-04-13T11:40:02.841Z,12.6
2023-04-13T12:00:02.529Z,12.9
2023-04-13T12:20:03.886Z,13.9
2023-04-13T12:40:02.606Z,14.4
2023-04-13T13:00:03.479Z,14.5
2023-04-13T13:20:03.132Z,14.1
2023-04-13T13:40:02.976Z,14.1
2023-04-13T14:00:02.624Z,14.1
2023-04-13T14:20:02.653Z,14.2
2023-04-13T14:40:03.558Z,14.5
2023-04-13T15:00:03.143Z,14.5
2023-04-13T15:20:02.581Z,14.3
2023-04-13T15:40:02.798Z,14.6
2023-04-13T16:00:02.784Z,14.5
2023-04-13T16:20:02.652Z,14
2023-04-13T16:40:03.308Z,13.8
2023-04-13T17:00:02.898Z,13.6
2023-04-13T17:20:02.401Z,13.2
2023-04-13T17:40:04.592Z,13
2023-04-13T18:00:02.805Z,12.5
2023-04-13T18:20:02.705Z,12
2023-04-13T18:40:02.366Z,11.5
2023-04-13T19:00:03.834Z,11
2023-04-13T19:20:02.865Z,10.6
2023-04-13T19:40:02.529Z,10.4
2023-04-13T20:00:03.018Z,10.3
2023-04-13T20:20:02.545Z,10.2
2023-04-13T20:40:02.998Z,9.9
2023-04-13T21:00:02.488Z,9.6
2023-04-13T21:20:02.126Z,9.3
2023-04-13T21:40:02.374Z,8.9
2023-04-13T22:00:03.916Z,8.5
2023-04-13T22:20:03.020Z,8.2
2023-04-13T22:40:02.470Z,7.9
2023-04-13T23:00:02.884Z,7.9
2023-04-13T23:20:02.593Z,7.9
2023-04-13T23:40:02.712Z,7.8
